Time;durP1;ratioP1;P1;durP2;ratioP2;P2;SDS_P1;SDS_P2;PMS_P1;PMS_P2;Temp;Humidity;BMP_temperature;BMP_pressure;BME280_temperature;BME280_humidity;BME280_pressure;Samples;Min_cycle;Max_cycle;Signal;HPM_P1;HPM_P2
2024/02/06 00:02:23;;;;;;;;;13.00;10.00;;;;;;;;6349409;22;44763;-81
2024/02/06 00:04:49;;;;;;;;;20.67;18.33;;;;;;;;6321590;22;44810;-80
2024/02/06 00:07:14;;;;;;;;;14.33;14.00;;;;;;;;6350289;22;44848;-81
2024/02/06 00:12:49;;;;;;;;;17.00;14.00;;;;;;;;6347545;22;45312;-81
2024/02/06 00:15:14;;;;;;;;;18.33;17.00;;;;;;;;6350655;22;44744;-81
2024/02/06 00:17:39;;;;;;;;;13.00;13.00;;;;;;;;6351220;22;44819;-81
2024/02/06 00:20:05;;;;;;;;;5.33;5.33;;;;;;;;6321616;22;47409;-82
2024/02/06 00:22:31;;;;;;;;;15.67;14.33;;;;;;;;6323161;22;44914;-81
2024/02/06 00:24:57;;;;;;;;;15.67;13.33;;;;;;;;6322309;22;44834;-82
2024/02/06 00:27:22;;;;;;;;;18.67;15.33;;;;;;;;6323238;22;45392;-82
2024/02/06 00:29:51;;;;;;;;;13.67;12.67;;;;;;;;6321570;22;47143;-81
2024/02/06 00:32:17;;;;;;;;;15.00;15.00;;;;;;;;6309124;22;46121;-84
2024/02/06 00:34:42;;;;;;;;;17.33;14.67;;;;;;;;6336844;22;45573;-84
2024/02/06 00:37:07;;;;;;;;;15.00;15.00;;;;;;;;6337853;22;45259;-84
2024/02/06 00:39:33;;;;;;;;;15.33;14.00;;;;;;;;6339990;22;45404;-83
2024/02/06 00:41:58;;;;;;;;;16.67;13.00;;;;;;;;6312472;22;45765;-83
2024/02/06 00:44:23;;;;;;;;;14.33;12.33;;;;;;;;6337750;22;45368;-83
2024/02/06 00:46:48;;;;;;;;;14.67;14.33;;;;;;;;6310400;22;45404;-83
2024/02/06 00:49:14;;;;;;;;;11.33;11.33;;;;;;;;6309097;22;47021;-83
2024/02/06 00:51:39;;;;;;;;;18.33;13.00;;;;;;;;6339370;22;45392;-83
2024/02/06 00:54:04;;;;;;;;;15.00;13.67;;;;;;;;6308186;22;45608;-84
2024/02/06 00:56:29;;;;;;;;;16.00;15.00;;;;;;;;6338321;22;45293;-83
2024/02/06 00:58:55;;;;;;;;;19.00;16.00;;;;;;;;6309620;22;47080;-83
2024/02/06 01:01:21;;;;;;;;;16.33;16.33;;;;;;;;6312705;22;44728;-82
2024/02/06 01:03:46;;;;;;;;;17.67;17.67;;;;;;;;6313334;22;45359;-82
2024/02/06 01:06:11;;;;;;;;;19.00;15.33;;;;;;;;6311925;22;45444;-82
2024/02/06 01:08:37;;;;;;;;;16.67;14.00;;;;;;;;6338798;22;45465;-82
2024/02/06 01:11:02;;;;;;;;;19.33;14.00;;;;;;;;6312865;22;45659;-82
2024/02/06 01:13:27;;;;;;;;;11.00;10.33;;;;;;;;6312707;22;45234;-82
2024/02/06 01:15:52;;;;;;;;;16.33;15.67;;;;;;;;6341256;22;45585;-81
2024/02/06 01:18:18;;;;;;;;;17.67;16.67;;;;;;;;6312620;22;47074;-81
2024/02/06 01:20:43;;;;;;;;;14.67;13.67;;;;;;;;6340667;22;45408;-82
2024/02/06 01:23:08;;;;;;;;;8.00;5.33;;;;;;;;6340957;22;45314;-82
2024/02/06 01:25:34;;;;;;;;;13.33;10.00;;;;;;;;6309960;22;45075;-81
2024/02/06 01:28:00;;;;;;;;;14.00;13.67;;;;;;;;6338888;22;46270;-83
2024/02/06 01:30:25;;;;;;;;;18.67;16.67;;;;;;;;6312264;22;45369;-83
2024/02/06 01:32:50;;;;;;;;;15.00;15.00;;;;;;;;6312220;22;45430;-83
2024/02/06 01:35:16;;;;;;;;;13.00;11.67;;;;;;;;6311092;22;45280;-83
2024/02/06 01:37:42;;;;;;;;;19.00;16.00;;;;;;;;6340477;22;45655;-83
2024/02/06 01:40:07;;;;;;;;;15.00;14.67;;;;;;;;6312876;22;45157;-83
2024/02/06 01:42:32;;;;;;;;;17.67;15.33;;;;;;;;6310708;22;44859;-83
2024/02/06 01:44:58;;;;;;;;;17.00;16.00;;;;;;;;6311691;22;45604;-83
2024/02/06 01:47:24;;;;;;;;;18.00;15.67;;;;;;;;6342348;22;45120;-82
2024/02/06 01:49:50;;;;;;;;;18.33;15.00;;;;;;;;6340382;22;45278;-83
2024/02/06 01:52:15;;;;;;;;;22.00;15.33;;;;;;;;6311787;22;45411;-83
2024/02/06 01:54:40;;;;;;;;;19.00;17.00;;;;;;;;6311612;22;45530;-83
2024/02/06 01:57:06;;;;;;;;;16.67;15.00;;;;;;;;6310357;22;47264;-83
2024/02/06 01:59:31;;;;;;;;;19.33;18.00;;;;;;;;6307546;22;45346;-83
2024/02/06 02:01:57;;;;;;;;;17.33;15.00;;;;;;;;6338861;22;45277;-82
2024/02/06 02:04:22;;;;;;;;;16.33;16.00;;;;;;;;6311562;22;44939;-82
2024/02/06 02:06:48;;;;;;;;;21.33;17.67;;;;;;;;6338713;22;46552;-82
2024/02/06 02:09:13;;;;;;;;;17.00;15.67;;;;;;;;6339009;22;45358;-82
2024/02/06 02:11:38;;;;;;;;;19.33;19.33;;;;;;;;6337486;22;44824;-81
2024/02/06 02:14:03;;;;;;;;;24.67;19.33;;;;;;;;6339011;22;45333;-82
2024/02/06 02:16:29;;;;;;;;;21.00;17.67;;;;;;;;6309797;22;47129;-82
2024/02/06 02:18:55;;;;;;;;;20.67;19.67;;;;;;;;6309728;22;45294;-81
2024/02/06 02:21:20;;;;;;;;;20.67;17.33;;;;;;;;6339594;22;45310;-82
2024/02/06 02:23:46;;;;;;;;;22.00;18.33;;;;;;;;6312012;22;44817;-81
2024/02/06 02:26:11;;;;;;;;;19.00;14.00;;;;;;;;6340500;22;44943;-81
2024/02/06 02:28:38;;;;;;;;;19.33;15.67;;;;;;;;6312784;22;45374;-80
2024/02/06 02:31:05;;;;;;;;;18.00;15.33;;;;;;;;6312549;22;45408;-81
2024/02/06 02:33:31;;;;;;;;;22.67;20.00;;;;;;;;6308751;22;45765;-82
2024/02/06 02:35:56;;;;;;;;;20.33;18.67;;;;;;;;6311159;22;47029;-82
2024/02/06 02:38:22;;;;;;;;;21.67;19.67;;;;;;;;6340350;22;45472;-82
2024/02/06 02:40:48;;;;;;;;;20.00;18.00;;;;;;;;6312295;22;45678;-81
2024/02/06 02:43:14;;;;;;;;;24.67;15.00;;;;;;;;6312871;22;44866;-81
2024/02/06 02:45:39;;;;;;;;;24.00;22.33;;;;;;;;6314207;22;47169;-82
2024/02/06 02:48:04;;;;;;;;;21.67;19.00;;;;;;;;6313210;22;44758;-82
2024/02/06 02:50:30;;;;;;;;;19.00;16.67;;;;;;;;6342090;22;44863;-82
2024/02/06 02:52:55;;;;;;;;;24.00;20.67;;;;;;;;6312406;22;44965;-82
2024/02/06 02:55:20;;;;;;;;;20.00;19.33;;;;;;;;6340847;22;46046;-82
2024/02/06 02:57:45;;;;;;;;;18.67;15.67;;;;;;;;6313190;22;45673;-82
2024/02/06 03:00:11;;;;;;;;;21.33;20.67;;;;;;;;6312660;22;45304;-83
2024/02/06 03:02:36;;;;;;;;;23.33;20.67;;;;;;;;6312431;22;45321;-82
2024/02/06 03:05:03;;;;;;;;;22.00;20.00;;;;;;;;6310711;22;47244;-83
2024/02/06 03:07:28;;;;;;;;;27.67;22.33;;;;;;;;6309226;22;45406;-82
2024/02/06 03:10:01;;;;;;;;;18.00;18.00;;;;;;;;6311282;22;45342;-82
2024/02/06 03:12:31;;;;;;;;;22.00;19.33;;;;;;;;6337879;22;45290;-82
2024/02/06 03:14:58;;;;;;;;;23.00;23.00;;;;;;;;6341449;22;44986;-82
2024/02/06 03:17:23;;;;;;;;;22.33;19.67;;;;;;;;6311512;22;45521;-82
2024/02/06 03:19:48;;;;;;;;;21.67;18.67;;;;;;;;6341186;22;45314;-82
2024/02/06 03:22:14;;;;;;;;;21.00;19.67;;;;;;;;6311983;22;44948;-82
2024/02/06 03:24:39;;;;;;;;;23.67;23.00;;;;;;;;6310532;22;47041;-82
2024/02/06 03:27:05;;;;;;;;;25.33;19.33;;;;;;;;6310717;22;45135;-82
2024/02/06 03:29:30;;;;;;;;;24.67;21.67;;;;;;;;6339235;22;44798;-82
2024/02/06 03:31:55;;;;;;;;;22.33;20.67;;;;;;;;6340644;22;45731;-82
2024/02/06 03:34:20;;;;;;;;;26.00;22.33;;;;;;;;6340121;22;45604;-82
2024/02/06 03:36:46;;;;;;;;;21.67;19.33;;;;;;;;6310754;22;45837;-82
2024/02/06 03:39:12;;;;;;;;;24.00;20.67;;;;;;;;6341373;22;45319;-82
2024/02/06 03:41:37;;;;;;;;;14.33;14.33;;;;;;;;6339063;22;45648;-82
2024/02/06 03:44:03;;;;;;;;;26.00;21.00;;;;;;;;6309562;22;47339;-82
2024/02/06 03:46:29;;;;;;;;;25.33;22.67;;;;;;;;6310053;22;45276;-81
2024/02/06 03:48:54;;;;;;;;;26.67;26.00;;;;;;;;6311774;22;44833;-82
2024/02/06 03:51:19;;;;;;;;;22.33;21.67;;;;;;;;6340442;22;45382;-82
2024/02/06 03:53:45;;;;;;;;;22.00;19.00;;;;;;;;6311779;22;47255;-82
2024/02/06 03:56:10;;;;;;;;;20.00;16.33;;;;;;;;6340466;22;44784;-82
2024/02/06 03:58:42;;;;;;;;;19.33;12.33;;;;;;;;6311612;22;45605;-82
2024/02/06 04:01:07;;;;;;;;;22.33;18.00;;;;;;;;6312350;22;45721;-82
2024/02/06 04:03:32;;;;;;;;;22.67;22.00;;;;;;;;6340691;22;45295;-82
2024/02/06 04:05:57;;;;;;;;;22.00;21.00;;;;;;;;6311627;22;44771;-82
2024/02/06 04:08:24;;;;;;;;;20.00;19.33;;;;;;;;6312602;22;44837;-81
2024/02/06 04:10:49;;;;;;;;;24.00;23.00;;;;;;;;6342160;22;45662;-81
2024/02/06 04:13:14;;;;;;;;;22.67;22.67;;;;;;;;6340271;22;46385;-82
2024/02/06 04:15:39;;;;;;;;;23.00;22.67;;;;;;;;6310818;22;45512;-82
2024/02/06 04:18:05;;;;;;;;;25.33;21.67;;;;;;;;6338567;22;45308;-82
2024/02/06 04:20:31;;;;;;;;;22.67;20.00;;;;;;;;6311434;22;45294;-82
2024/02/06 04:23:00;;;;;;;;;22.33;21.00;;;;;;;;6310879;22;47925;-82
2024/02/06 04:25:25;;;;;;;;;23.33;20.00;;;;;;;;6338977;22;45413;-82
2024/02/06 04:27:50;;;;;;;;;26.67;21.00;;;;;;;;6311966;22;45397;-82
2024/02/06 04:30:16;;;;;;;;;28.00;20.33;;;;;;;;6311636;22;45262;-82
2024/02/06 04:32:42;;;;;;;;;23.67;19.67;;;;;;;;6311048;22;47102;-82
2024/02/06 04:35:08;;;;;;;;;22.33;19.33;;;;;;;;6339403;22;45318;-82
2024/02/06 04:37:34;;;;;;;;;25.33;21.67;;;;;;;;6340730;22;45263;-82
2024/02/06 04:39:59;;;;;;;;;15.00;12.00;;;;;;;;6312344;22;44920;-82
2024/02/06 04:42:24;;;;;;;;;22.00;22.00;;;;;;;;6312559;22;46893;-82
2024/02/06 04:44:50;;;;;;;;;21.00;20.00;;;;;;;;6311899;22;44854;-82
2024/02/06 04:47:15;;;;;;;;;19.33;15.67;;;;;;;;6312793;22;44760;-82
2024/02/06 04:49:40;;;;;;;;;24.67;21.00;;;;;;;;6310863;22;45086;-81
2024/02/06 04:52:05;;;;;;;;;18.33;18.33;;;;;;;;6336026;22;45056;-82
2024/02/06 04:54:31;;;;;;;;;26.00;23.67;;;;;;;;6309478;22;45852;-82
2024/02/06 04:56:56;;;;;;;;;23.33;20.67;;;;;;;;6310629;22;45859;-82
2024/02/06 04:59:21;;;;;;;;;19.00;18.00;;;;;;;;6338151;22;44847;-82
2024/02/06 05:01:46;;;;;;;;;18.67;14.33;;;;;;;;6310185;22;47360;-82
2024/02/06 05:04:12;;;;;;;;;24.33;20.67;;;;;;;;6310634;22;45732;-82
2024/02/06 05:06:37;;;;;;;;;22.67;19.67;;;;;;;;6339914;22;45336;-82
2024/02/06 05:09:02;;;;;;;;;20.33;20.00;;;;;;;;6339945;22;45342;-82
2024/02/06 05:11:35;;;;;;;;;24.33;20.00;;;;;;;;6339286;22;45317;-82
2024/02/06 05:14:00;;;;;;;;;18.33;18.33;;;;;;;;6340545;22;45277;-82
2024/02/06 05:16:25;;;;;;;;;22.00;18.00;;;;;;;;6311892;22;45545;-82
2024/02/06 05:18:51;;;;;;;;;26.00;18.67;;;;;;;;6341475;22;45458;-82
2024/02/06 05:21:16;;;;;;;;;22.00;22.00;;;;;;;;6342186;22;45329;-82
2024/02/06 05:23:41;;;;;;;;;20.00;20.00;;;;;;;;6312457;22;45372;-82
2024/02/06 05:26:06;;;;;;;;;26.67;22.00;;;;;;;;6312206;22;44818;-82
2024/02/06 05:28:32;;;;;;;;;19.33;18.00;;;;;;;;6315252;22;45410;-82
2024/02/06 05:30:57;;;;;;;;;22.33;19.33;;;;;;;;6341761;22;45451;-81
2024/02/06 05:33:22;;;;;;;;;21.00;19.00;;;;;;;;6313459;22;44879;-81
2024/02/06 05:35:48;;;;;;;;;18.00;16.33;;;;;;;;6312690;22;45801;-82
2024/02/06 05:38:14;;;;;;;;;22.33;21.00;;;;;;;;6311901;22;45436;-82
2024/02/06 05:40:39;;;;;;;;;21.00;19.33;;;;;;;;6311235;22;46667;-82
2024/02/06 05:43:04;;;;;;;;;21.00;18.33;;;;;;;;6310954;22;45411;-82
2024/02/06 05:45:29;;;;;;;;;20.67;20.00;;;;;;;;6311447;22;45394;-81
2024/02/06 05:47:59;;;;;;;;;22.67;19.00;;;;;;;;6341154;22;45440;-82
2024/02/06 05:50:24;;;;;;;;;23.00;18.67;;;;;;;;6340453;22;46241;-81
2024/02/06 05:52:49;;;;;;;;;21.33;19.00;;;;;;;;6340350;22;45378;-81
2024/02/06 05:55:15;;;;;;;;;19.33;19.33;;;;;;;;6340509;22;45717;-82
2024/02/06 05:57:40;;;;;;;;;20.00;18.33;;;;;;;;6310708;22;45470;-82
2024/02/06 06:00:07;;;;;;;;;19.67;18.00;;;;;;;;6310608;22;47078;-82
2024/02/06 06:02:33;;;;;;;;;25.00;21.00;;;;;;;;6311612;22;45765;-82
2024/02/06 06:04:58;;;;;;;;;19.67;18.67;;;;;;;;6284723;22;45621;-81
2024/02/06 06:07:23;;;;;;;;;20.33;19.33;;;;;;;;6312817;22;45514;-82
2024/02/06 06:09:48;;;;;;;;;27.33;19.33;;;;;;;;6341855;22;45430;-81
2024/02/06 06:12:14;;;;;;;;;19.00;17.33;;;;;;;;6313978;22;45427;-82
2024/02/06 06:14:39;;;;;;;;;26.67;21.00;;;;;;;;6345583;22;45539;-83
2024/02/06 06:17:05;;;;;;;;;21.00;19.67;;;;;;;;6345161;22;45447;-82
2024/02/06 06:19:30;;;;;;;;;18.33;18.00;;;;;;;;6345743;22;46093;-82
2024/02/06 06:21:55;;;;;;;;;19.00;17.00;;;;;;;;6342925;22;45357;-82
2024/02/06 06:24:21;;;;;;;;;29.00;20.67;;;;;;;;6312379;22;45887;-81
2024/02/06 06:26:46;;;;;;;;;23.33;20.67;;;;;;;;6311629;22;45353;-81
2024/02/06 06:29:11;;;;;;;;;22.33;19.67;;;;;;;;6344544;22;45710;-82
2024/02/06 06:31:37;;;;;;;;;25.00;21.33;;;;;;;;6314001;22;44929;-83
2024/02/06 06:34:04;;;;;;;;;25.67;23.00;;;;;;;;6341962;22;45149;-83
2024/02/06 06:36:29;;;;;;;;;15.00;15.00;;;;;;;;6315741;22;45360;-83
2024/02/06 06:38:56;;;;;;;;;20.00;16.67;;;;;;;;6343850;22;45186;-82
2024/02/06 06:41:24;;;;;;;;;23.33;21.00;;;;;;;;6315436;22;44779;-82
2024/02/06 06:43:49;;;;;;;;;22.67;17.33;;;;;;;;6316278;22;44768;-81
2024/02/06 06:46:15;;;;;;;;;20.00;20.00;;;;;;;;6315662;22;45582;-84
2024/02/06 06:48:40;;;;;;;;;20.33;15.00;;;;;;;;6322583;22;47380;-84
2024/02/06 06:51:05;;;;;;;;;27.00;22.33;;;;;;;;6321393;22;45425;-82
2024/02/06 06:53:32;;;;;;;;;21.67;21.00;;;;;;;;6346027;22;45268;-82
2024/02/06 06:55:57;;;;;;;;;21.33;20.33;;;;;;;;6342204;22;44720;-82
2024/02/06 06:58:23;;;;;;;;;21.00;20.67;;;;;;;;6342547;22;45590;-81
2024/02/06 07:00:49;;;;;;;;;20.33;17.67;;;;;;;;6317271;22;44760;-81
2024/02/06 07:03:14;;;;;;;;;18.33;17.33;;;;;;;;6317537;22;45412;-82
2024/02/06 07:05:39;;;;;;;;;20.67;18.00;;;;;;;;6314811;22;44925;-83
2024/02/06 07:08:05;;;;;;;;;19.33;18.00;;;;;;;;6344114;22;45302;-82
2024/02/06 07:10:30;;;;;;;;;21.67;18.00;;;;;;;;6319336;22;44959;-82
2024/02/06 07:12:56;;;;;;;;;16.00;15.00;;;;;;;;6350446;22;45686;-82
2024/02/06 07:15:21;;;;;;;;;23.33;18.00;;;;;;;;6326252;22;44777;-81
2024/02/06 07:17:46;;;;;;;;;16.00;13.00;;;;;;;;6324552;22;47019;-82
2024/02/06 07:23:15;;;;;;;;;22.67;20.67;;;;;;;;6350353;22;45333;-83
2024/02/06 07:25:42;;;;;;;;;17.67;14.33;;;;;;;;6325644;22;44842;-82
2024/02/06 07:28:10;;;;;;;;;20.67;17.33;;;;;;;;6349868;22;45387;-81
2024/02/06 07:30:35;;;;;;;;;21.00;18.33;;;;;;;;6326249;22;44885;-82
2024/02/06 07:33:02;;;;;;;;;20.00;17.00;;;;;;;;6354973;22;44845;-81
2024/02/06 07:35:27;;;;;;;;;16.00;15.67;;;;;;;;6326704;22;44857;-81
2024/02/06 07:37:53;;;;;;;;;21.00;16.33;;;;;;;;6326016;22;47063;-82
2024/02/06 07:40:18;;;;;;;;;22.00;19.00;;;;;;;;6325646;22;44851;-82
2024/02/06 07:42:45;;;;;;;;;16.00;16.00;;;;;;;;6327668;22;45035;-82
2024/02/06 07:45:11;;;;;;;;;15.67;14.67;;;;;;;;6327047;22;44914;-82
2024/02/06 07:47:36;;;;;;;;;21.33;16.33;;;;;;;;6330454;22;47106;-82
2024/02/06 07:52:47;;;;;;;;;21.33;16.00;;;;;;;;6305906;22;46144;-82
2024/02/06 07:55:13;;;;;;;;;20.00;19.00;;;;;;;;6295489;22;45448;-82
2024/02/06 07:57:38;;;;;;;;;21.67;16.67;;;;;;;;6347064;22;45380;-82
2024/02/06 08:00:04;;;;;;;;;25.33;22.00;;;;;;;;6343836;22;45366;-80
2024/02/06 08:02:34;;;;;;;;;17.00;16.67;;;;;;;;6310520;22;44942;-80
2024/02/06 08:04:59;;;;;;;;;12.00;11.67;;;;;;;;6312816;22;45376;-81
2024/02/06 08:07:28;;;;;;;;;17.33;14.00;;;;;;;;6313542;22;46872;-79
2024/02/06 08:10:00;;;;;;;;;14.33;14.33;;;;;;;;6339507;22;45640;-80
2024/02/06 08:12:27;;;;;;;;;15.67;14.67;;;;;;;;6339860;22;45356;-78
2024/02/06 08:14:52;;;;;;;;;16.00;13.00;;;;;;;;6320183;22;44948;-82
2024/02/06 08:17:19;;;;;;;;;18.33;15.00;;;;;;;;6322471;22;47352;-81
2024/02/06 08:19:48;;;;;;;;;17.67;15.00;;;;;;;;6318901;22;45335;-83
2024/02/06 08:22:13;;;;;;;;;15.33;14.33;;;;;;;;6356784;22;44837;-82
2024/02/06 08:24:39;;;;;;;;;19.00;13.33;;;;;;;;6357785;22;44765;-81
2024/02/06 08:27:04;;;;;;;;;17.33;13.33;;;;;;;;6353649;22;45349;-83
2024/02/06 08:29:30;;;;;;;;;13.33;13.33;;;;;;;;6331419;22;44867;-82
2024/02/06 08:31:55;;;;;;;;;14.33;13.00;;;;;;;;6331813;22;44969;-81
2024/02/06 08:34:23;;;;;;;;;16.67;15.00;;;;;;;;6355209;22;44848;-83
2024/02/06 08:36:48;;;;;;;;;17.00;15.00;;;;;;;;6326807;22;47187;-82
2024/02/06 08:39:15;;;;;;;;;15.00;13.00;;;;;;;;6327813;22;45077;-82
2024/02/06 08:41:41;;;;;;;;;9.00;8.33;;;;;;;;6359583;22;44781;-83
2024/02/06 08:44:11;;;;;;;;;15.00;14.00;;;;;;;;6300091;22;44804;-82
2024/02/06 08:46:37;;;;;;;;;11.67;10.00;;;;;;;;6301127;22;47083;-83
2024/02/06 08:49:02;;;;;;;;;15.00;12.67;;;;;;;;6301252;22;44896;-82
2024/02/06 08:51:50;;;;;;;;;17.33;14.33;;;;;;;;6329046;22;45278;-81
2024/02/06 08:54:17;;;;;;;;;12.67;12.67;;;;;;;;6330036;22;44865;-81
2024/02/06 08:56:42;;;;;;;;;16.00;15.00;;;;;;;;6298553;22;47128;-82
2024/02/06 08:59:09;;;;;;;;;17.67;16.00;;;;;;;;6301522;22;46212;-81
2024/02/06 09:01:35;;;;;;;;;17.67;14.00;;;;;;;;6300862;22;44879;-82
2024/02/06 09:06:39;;;;;;;;;14.67;12.67;;;;;;;;6166381;22;45338;-83
2024/02/06 09:09:09;;;;;;;;;15.67;12.33;;;;;;;;6159216;22;44908;-82
2024/02/06 09:11:44;;;;;;;;;9.67;9.33;;;;;;;;6269394;22;44766;-83
2024/02/06 09:14:12;;;;;;;;;13.33;11.33;;;;;;;;6169198;22;44703;-80
2024/02/06 09:16:37;;;;;;;;;11.67;11.33;;;;;;;;6167186;22;45962;-83
2024/02/06 09:19:03;;;;;;;;;10.00;9.00;;;;;;;;6162125;22;45064;-82
2024/02/06 09:21:28;;;;;;;;;10.00;10.00;;;;;;;;6165692;22;45489;-81
2024/02/06 09:23:59;;;;;;;;;5.33;5.33;;;;;;;;6273802;22;44914;-81
2024/02/06 09:26:24;;;;;;;;;9.67;9.00;;;;;;;;6169600;22;46940;-81
2024/02/06 09:28:49;;;;;;;;;13.67;11.00;;;;;;;;6267381;22;45720;-83
2024/02/06 09:31:16;;;;;;;;;9.67;8.33;;;;;;;;6270692;22;45068;-82
2024/02/06 09:33:42;;;;;;;;;10.00;9.33;;;;;;;;6163441;22;45068;-81
2024/02/06 09:36:09;;;;;;;;;9.33;8.00;;;;;;;;6286827;22;46759;-84
2024/02/06 09:38:43;;;;;;;;;12.00;12.00;;;;;;;;6315317;22;45279;-81
2024/02/06 09:41:21;;;;;;;;;14.00;13.67;;;;;;;;6293034;22;45363;-82
2024/02/06 09:44:07;;;;;;;;;13.00;10.00;;;;;;;;6291547;22;45345;-83
2024/02/06 09:46:43;;;;;;;;;14.67;11.67;;;;;;;;6316607;22;45975;-82
2024/02/06 09:49:08;;;;;;;;;13.67;10.67;;;;;;;;6288579;22;45334;-82
2024/02/06 09:51:51;;;;;;;;;11.33;11.00;;;;;;;;6294164;22;45214;-83
2024/02/06 09:54:16;;;;;;;;;13.67;12.00;;;;;;;;6318588;22;45358;-84
2024/02/06 09:56:53;;;;;;;;;12.00;11.00;;;;;;;;6291575;22;46865;-82
2024/02/06 09:59:22;;;;;;;;;13.00;11.00;;;;;;;;6294051;22;45049;-82
2024/02/06 10:04:53;;;;;;;;;15.00;12.00;;;;;;;;6326953;22;44938;-82
2024/02/06 10:07:18;;;;;;;;;10.00;6.67;;;;;;;;6326161;22;45113;-82
2024/02/06 10:09:45;;;;;;;;;10.00;8.67;;;;;;;;6294750;22;44906;-83
2024/02/06 10:12:13;;;;;;;;;11.00;9.00;;;;;;;;6321322;22;44862;-83
2024/02/06 10:14:39;;;;;;;;;7.00;7.00;;;;;;;;6288970;22;44868;-84
2024/02/06 10:17:18;;;;;;;;;14.00;10.00;;;;;;;;6286244;22;47102;-83
2024/02/06 10:19:45;;;;;;;;;8.00;7.67;;;;;;;;6289456;22;45446;-82
2024/02/06 10:22:14;;;;;;;;;11.00;10.67;;;;;;;;6291574;22;45320;-81
2024/02/06 10:24:43;;;;;;;;;10.67;8.33;;;;;;;;6296383;22;44862;-82
2024/02/06 10:27:08;;;;;;;;;8.33;8.33;;;;;;;;6316300;22;46810;-81
2024/02/06 10:29:36;;;;;;;;;13.33;10.67;;;;;;;;6315986;22;45321;-82
2024/02/06 10:32:14;;;;;;;;;11.00;9.33;;;;;;;;6289101;22;44832;-82
2024/02/06 10:34:42;;;;;;;;;10.67;9.00;;;;;;;;6325354;22;44892;-82
2024/02/06 10:37:07;;;;;;;;;9.67;8.67;;;;;;;;6287892;22;47192;-82
2024/02/06 10:39:33;;;;;;;;;7.67;7.00;;;;;;;;6286033;22;45470;-82
2024/02/06 10:42:03;;;;;;;;;9.00;7.00;;;;;;;;6287382;22;44853;-80
2024/02/06 10:44:28;;;;;;;;;10.00;9.67;;;;;;;;6286021;22;45390;-82
2024/02/06 10:47:01;;;;;;;;;13.33;10.00;;;;;;;;6290029;22;47343;-82
2024/02/06 10:49:26;;;;;;;;;6.67;4.00;;;;;;;;6286674;22;45053;-82
2024/02/06 10:52:01;;;;;;;;;15.33;10.67;;;;;;;;6281655;22;45357;-83
2024/02/06 10:54:31;;;;;;;;;9.00;7.67;;;;;;;;6281871;22;45289;-84
2024/02/06 10:57:03;;;;;;;;;9.33;5.33;;;;;;;;6282424;22;47119;-82
2024/02/06 10:59:33;;;;;;;;;8.00;8.00;;;;;;;;6311940;22;45470;-82
2024/02/06 11:02:04;;;;;;;;;9.67;8.67;;;;;;;;6312714;22;45439;-83
2024/02/06 11:04:32;;;;;;;;;8.67;8.67;;;;;;;;6282905;22;44900;-82
2024/02/06 11:07:05;;;;;;;;;10.00;8.33;;;;;;;;6307994;22;46498;-83
2024/02/06 11:09:32;;;;;;;;;5.00;4.00;;;;;;;;6281811;22;45488;-83
2024/02/06 11:12:10;;;;;;;;;10.33;10.33;;;;;;;;6285189;22;45429;-83
2024/02/06 11:14:46;;;;;;;;;9.33;9.33;;;;;;;;6261755;22;44868;-83
2024/02/06 11:17:15;;;;;;;;;10.67;10.33;;;;;;;;6309921;22;45370;-83
2024/02/06 11:20:09;;;;;;;;;11.00;11.00;;;;;;;;6280600;22;45525;-83
2024/02/06 11:22:37;;;;;;;;;12.33;9.33;;;;;;;;6257672;22;45245;-82
2024/02/06 11:25:05;;;;;;;;;10.67;8.33;;;;;;;;6282583;22;45481;-82
2024/02/06 11:27:33;;;;;;;;;9.67;6.00;;;;;;;;6277767;22;47113;-82
2024/02/06 11:30:21;;;;;;;;;;;;;;;;;;;;;
2024/02/06 11:32:47;;;;;;;;;14.33;8.67;;;;;;;;6289277;22;67925;-83
2024/02/06 11:35:25;;;;;;;;;9.00;9.00;;;;;;;;6311501;22;44909;-82
2024/02/06 11:37:53;;;;;;;;;10.00;10.00;;;;;;;;6311728;22;45337;-83
2024/02/06 11:40:33;;;;;;;;;;;;;;;;;;;;;
2024/02/06 11:43:05;;;;;;;;;12.00;11.00;;;;;;;;6308491;22;68894;-85
2024/02/06 11:45:41;;;;;;;;;;;;;;;;;;;;;
2024/02/06 11:48:09;;;;;;;;;11.67;11.67;;;;;;;;6309715;22;75562;-83
2024/02/06 11:50:49;;;;;;;;;9.67;9.67;;;;;;;;6286219;22;45766;-86
2024/02/06 11:53:14;;;;;;;;;11.67;9.00;;;;;;;;6313329;22;45378;-84
2024/02/06 11:55:46;;;;;;;;;14.00;10.67;;;;;;;;6291891;22;45105;-86
2024/02/06 11:58:54;;;;;;;;;;;;;;;;;;;;;
2024/02/06 12:01:29;;;;;;;;;11.33;11.00;;;;;;;;6309817;22;72839;-83
2024/02/06 12:04:18;;;;;;;;;;;;;;;;;;;;;
2024/02/06 12:07:06;;;;;;;;;10.33;9.00;;;;;;;;6319940;22;65241;-84
2024/02/06 12:09:39;;;;;;;;;11.33;11.33;;;;;;;;6290453;22;47505;-82
2024/02/06 12:12:07;;;;;;;;;12.00;10.00;;;;;;;;6313065;22;45344;-83
2024/02/06 12:14:38;;;;;;;;;11.00;10.00;;;;;;;;6287374;22;45261;-83
2024/02/06 12:29:51;;;;;;;;;12.00;11.67;;;;;;;;6320686;22;44672;-85
2024/02/06 12:32:17;;;;;;;;;13.33;10.00;;;;;;;;6283524;22;46993;-84
2024/02/06 12:34:43;;;;;;;;;11.33;9.67;;;;;;;;6313440;22;45377;-83
2024/02/06 12:37:21;;;;;;;;;15.33;10.67;;;;;;;;6314299;22;45739;-86
2024/02/06 12:39:57;;;;;;;;;8.67;8.67;;;;;;;;6316025;22;45387;-84
2024/02/06 12:42:32;;;;;;;;;8.67;8.67;;;;;;;;6318685;22;45356;-81
2024/02/06 12:45:00;;;;;;;;;11.67;10.00;;;;;;;;6314944;22;45283;-83
2024/02/06 12:47:36;;;;;;;;;13.33;11.67;;;;;;;;6290538;22;45505;-83
2024/02/06 12:50:03;;;;;;;;;9.67;9.00;;;;;;;;6285507;22;44883;-85
2024/02/06 12:52:32;;;;;;;;;10.33;9.67;;;;;;;;6288689;22;47064;-86
2024/02/06 12:54:58;;;;;;;;;4.67;4.00;;;;;;;;6286006;22;45346;-83
2024/02/06 12:57:44;;;;;;;;;9.00;7.00;;;;;;;;6283546;22;44882;-83
2024/02/06 13:00:11;;;;;;;;;5.67;5.67;;;;;;;;6285920;22;45375;-82
2024/02/06 13:02:38;;;;;;;;;9.33;6.67;;;;;;;;6313254;22;45429;-84
2024/02/06 13:05:15;;;;;;;;;10.33;9.00;;;;;;;;6284859;22;45529;-82
2024/02/06 13:07:40;;;;;;;;;12.00;11.00;;;;;;;;6296638;22;45272;-85
2024/02/06 13:10:10;;;;;;;;;10.33;9.00;;;;;;;;6288588;22;45290;-84
2024/02/06 13:12:37;;;;;;;;;10.67;9.33;;;;;;;;6315138;22;45341;-83
2024/02/06 13:15:06;;;;;;;;;14.33;12.00;;;;;;;;6314546;22;45463;-84
2024/02/06 13:17:35;;;;;;;;;11.33;10.33;;;;;;;;6314078;22;44819;-83
2024/02/06 13:20:14;;;;;;;;;13.00;10.33;;;;;;;;6315104;22;44810;-83
2024/02/06 13:22:46;;;;;;;;;15.00;12.00;;;;;;;;6285722;22;47233;-86
2024/02/06 13:25:30;;;;;;;;;15.67;12.33;;;;;;;;6261947;22;45556;-84
2024/02/06 13:28:03;;;;;;;;;9.33;6.67;;;;;;;;6285197;22;45565;-83
2024/02/06 13:30:29;;;;;;;;;9.67;9.00;;;;;;;;6284516;22;45525;-83
2024/02/06 13:32:56;;;;;;;;;9.67;8.00;;;;;;;;6284951;22;45423;-84
2024/02/06 13:35:22;;;;;;;;;13.33;11.33;;;;;;;;6287698;22;44851;-83
2024/02/06 13:38:00;;;;;;;;;10.67;10.00;;;;;;;;6313809;22;45355;-82
2024/02/06 13:40:42;;;;;;;;;9.67;5.00;;;;;;;;6319565;22;44863;-82
2024/02/06 13:43:07;;;;;;;;;9.67;9.00;;;;;;;;6289626;22;47446;-83
2024/02/06 13:48:19;;;;;;;;;11.67;9.33;;;;;;;;6309002;22;45023;-82
2024/02/06 13:50:48;;;;;;;;;11.67;9.67;;;;;;;;6320189;22;45417;-81
2024/02/06 13:56:05;;;;;;;;;7.50;6.50;;;;;;;;6219043;22;45359;-82
2024/02/06 13:58:35;;;;;;;;;11.25;11.00;;;;;;;;6216423;22;45446;-83
2024/02/06 14:03:48;;;;;;;;;8.00;8.00;;;;;;;;6250907;22;45506;-83
2024/02/06 14:06:33;;;;;;;;;10.00;8.33;;;;;;;;6247892;22;45517;-83
2024/02/06 14:08:59;;;;;;;;;11.00;9.00;;;;;;;;6226987;22;44860;-82
2024/02/06 14:11:48;;;;;;;;;10.67;7.67;;;;;;;;6252771;22;45463;-84
2024/02/06 14:14:13;;;;;;;;;8.00;8.00;;;;;;;;6129436;23;45130;-82
2024/02/06 14:16:42;;;;;;;;;4.00;3.00;;;;;;;;6127162;23;45426;-83
2024/02/06 14:19:10;;;;;;;;;7.33;7.33;;;;;;;;6126998;23;45614;-83
2024/02/06 14:21:36;;;;;;;;;10.00;7.67;;;;;;;;6103091;23;45413;-84
2024/02/06 14:24:04;;;;;;;;;5.67;4.33;;;;;;;;6104101;23;48078;-85
2024/02/06 14:26:37;;;;;;;;;6.00;6.00;;;;;;;;6102373;23;45453;-85
2024/02/06 14:29:06;;;;;;;;;10.33;6.00;;;;;;;;6103822;23;45809;-82
2024/02/06 14:31:57;;;;;;;;;10.00;8.33;;;;;;;;6128521;23;45207;-83
2024/02/06 14:34:26;;;;;;;;;4.67;3.67;;;;;;;;6016513;23;46037;-83
2024/02/06 14:37:00;;;;;;;;;7.67;7.00;;;;;;;;5989723;23;45479;-82
2024/02/06 14:39:25;;;;;;;;;7.33;4.00;;;;;;;;5989032;23;45419;-83
2024/02/06 14:41:51;;;;;;;;;9.67;8.33;;;;;;;;5991878;23;45865;-84
2024/02/06 14:44:19;;;;;;;;;11.67;8.33;;;;;;;;5994268;23;47130;-84
2024/02/06 14:47:05;;;;;;;;;13.00;8.33;;;;;;;;5993148;23;45466;-84
2024/02/06 14:49:32;;;;;;;;;4.00;4.00;;;;;;;;6014810;23;44827;-83
2024/02/06 14:51:58;;;;;;;;;5.33;4.33;;;;;;;;6080707;23;44934;-83
2024/02/06 14:54:25;;;;;;;;;9.33;6.00;;;;;;;;6108219;23;47159;-83
2024/02/06 14:56:50;;;;;;;;;6.00;5.00;;;;;;;;6132081;23;45511;-84
2024/02/06 14:59:16;;;;;;;;;8.67;6.00;;;;;;;;6105506;23;45396;-83
2024/02/06 15:01:53;;;;;;;;;9.00;7.33;;;;;;;;6104825;23;45331;-81
2024/02/06 15:04:19;;;;;;;;;10.33;9.00;;;;;;;;6127336;23;46416;-81
2024/02/06 15:06:46;;;;;;;;;6.67;6.67;;;;;;;;6129138;23;45475;-83